Flight Track Log - Related Links

Times and Time Zones

All times are in EDT time to prevent confusion due to time zone crossing. See the FEX100 flight status page for this flight to view local times or setup timezone preferences in your user account.

Time Position Orientation Groundspeed Altitude Reporting Facility
EDT Latitude Longitude Course Direction KTS MPH feet Rate Location/Type
Thu 09:18:36 AM 46.3500 -82.7167 270° West 220 253 5,000  Level Toronto Center
Thu 09:19:36 AM 46.3500 -82.8000 270° West 180 207 7,000 1,750 Climbing Toronto Center
Thu 09:20:36 AM 46.3500 -82.8667 270° West 180 207 8,500 1,350 Climbing Toronto Center
Thu 09:21:36 AM 46.3667 -82.9500 286° West 180 207 9,700 750 Climbing Toronto Center
Thu 09:22:36 AM 46.3667 -83.0167 270° West 190 219 10,000 150 Climbing Toronto Center
Thu 09:23:36 AM 46.3667 -83.1167 270° West 220 253 10,000  Level Toronto Center
Thu 09:24:36 AM 46.3833 -83.2167 284° West 230 265 10,000  Level Toronto Center
Thu 09:25:36 AM 46.3833 -83.2833 270° West 230 265 10,000  Level Toronto Center
Thu 09:26:36 AM 46.3833 -83.3833 270° West 230 265 10,000  Level Toronto Center
Thu 09:27:36 AM 46.4000 -83.4833 284° West 240 276 10,000  Level Toronto Center
Thu 09:28:36 AM 46.4000 -83.5667 270° West 230 265 10,000  Level Toronto Center
Thu 09:29:36 AM 46.4167 -83.6667 284° West 230 265 10,000 -300 Level Toronto Center
Thu 09:30:36 AM 46.4333 -83.7667 284° West 230 265 9,400 -1,100 Descending Toronto Center
Thu 09:31:36 AM 46.4167 -83.8667 256° West 260 299 7,800 -1,500 Descending Toronto Center
Thu 09:32:36 AM 46.4333 -83.9667 284° West 270 311 6,400 -1,450 Descending Toronto Center
Thu 09:33:36 AM 46.4500 -84.0833 282° West 250 288 4,900 -1,000 Descending Toronto Center
Thu 09:34:36 AM 46.4500 -84.1833 270° West 250 288 4,400 -850 Descending Toronto Center
Thu 09:35:36 AM 46.4500 -84.2833 270° West 240 276 3,200 -800 Descending Toronto Center
Thu 09:36:36 AM 46.4667 -84.3500 290° West 220 253 2,800 -650 Descending Toronto Center
Thu 09:37:36 AM 46.4667 -84.4333 270° West 180 207 1,900 -950 Descending Toronto Center
Thu 09:38:36 AM 46.4667 -84.4667 270° West 130 150 900 -650 Descending Toronto Center
Thu 09:39:36 AM 46.4667 -84.5000 270° West 80 92 600 -300 Descending Toronto Center

Login

Don't have an account? Register now (free) for customized features, flight alerts, and more!